sensor_id;sensor_type;location;lat;lon;timestamp;temperature;humidity
23813;DHT22;12087;45.190;5.688;2023-03-01T00:03:33;5.00;99.90
23813;DHT22;12087;45.190;5.688;2023-03-01T00:08:55;5.00;99.90
23813;DHT22;12087;45.190;5.688;2023-03-01T00:14:19;5.00;99.90
23813;DHT22;12087;45.190;5.688;2023-03-01T00:19:41;5.00;99.90
23813;DHT22;12087;45.190;5.688;2023-03-01T00:25:04;5.10;99.90
23813;DHT22;12087;45.190;5.688;2023-03-01T00:30:28;5.10;99.90
23813;DHT22;12087;45.190;5.688;2023-03-01T00:35:50;5.10;99.90
23813;DHT22;12087;45.190;5.688;2023-03-01T00:41:13;5.00;99.90
23813;DHT22;12087;45.190;5.688;2023-03-01T00:46:37;5.10;99.90
23813;DHT22;12087;45.190;5.688;2023-03-01T00:51:59;5.00;99.90
23813;DHT22;12087;45.190;5.688;2023-03-01T00:57:22;5.00;99.90
23813;DHT22;12087;45.190;5.688;2023-03-01T01:02:46;5.10;99.90
23813;DHT22;12087;45.190;5.688;2023-03-01T01:08:08;5.10;99.90
23813;DHT22;12087;45.190;5.688;2023-03-01T01:13:30;5.00;99.90
23813;DHT22;12087;45.190;5.688;2023-03-01T01:18:54;5.00;99.90
23813;DHT22;12087;45.190;5.688;2023-03-01T01:24:17;5.00;99.90
23813;DHT22;12087;45.190;5.688;2023-03-01T01:29:39;5.00;99.90
23813;DHT22;12087;45.190;5.688;2023-03-01T01:35:04;5.00;99.90
23813;DHT22;12087;45.190;5.688;2023-03-01T01:40:26;5.00;99.90
23813;DHT22;12087;45.190;5.688;2023-03-01T01:45:49;5.00;99.90
23813;DHT22;12087;45.190;5.688;2023-03-01T01:51:17;5.10;99.90
23813;DHT22;12087;45.190;5.688;2023-03-01T01:56:41;5.10;99.90
23813;DHT22;12087;45.190;5.688;2023-03-01T02:02:06;5.00;99.90
23813;DHT22;12087;45.190;5.688;2023-03-01T02:07:30;5.00;99.90
23813;DHT22;12087;45.190;5.688;2023-03-01T02:12:53;5.00;99.90
23813;DHT22;12087;45.190;5.688;2023-03-01T02:18:18;5.00;99.90
23813;DHT22;12087;45.190;5.688;2023-03-01T02:23:42;5.00;99.90
23813;DHT22;12087;45.190;5.688;2023-03-01T02:29:06;5.10;99.90
23813;DHT22;12087;45.190;5.688;2023-03-01T02:34:31;5.10;99.90
23813;DHT22;12087;45.190;5.688;2023-03-01T02:39:58;5.10;99.90
23813;DHT22;12087;45.190;5.688;2023-03-01T02:45:23;5.10;99.90
23813;DHT22;12087;45.190;5.688;2023-03-01T02:50:53;5.10;99.90
23813;DHT22;12087;45.190;5.688;2023-03-01T02:56:16;5.20;99.90
23813;DHT22;12087;45.190;5.688;2023-03-01T03:01:40;5.20;99.90
23813;DHT22;12087;45.190;5.688;2023-03-01T03:07:02;5.20;99.90
23813;DHT22;12087;45.190;5.688;2023-03-01T03:12:25;5.20;99.90
23813;DHT22;12087;45.190;5.688;2023-03-01T03:17:49;5.20;99.90
23813;DHT22;12087;45.190;5.688;2023-03-01T03:23:12;5.20;99.90
23813;DHT22;12087;45.190;5.688;2023-03-01T03:28:35;5.20;99.90
23813;DHT22;12087;45.190;5.688;2023-03-01T03:34:01;5.20;99.90
23813;DHT22;12087;45.190;5.688;2023-03-01T03:39:24;5.10;99.90
23813;DHT22;12087;45.190;5.688;2023-03-01T03:44:46;5.20;99.90
23813;DHT22;12087;45.190;5.688;2023-03-01T03:50:11;5.20;99.90
23813;DHT22;12087;45.190;5.688;2023-03-01T03:55:34;5.20;99.90
23813;DHT22;12087;45.190;5.688;2023-03-01T04:00:59;5.10;99.90
23813;DHT22;12087;45.190;5.688;2023-03-01T04:06:24;5.20;99.90
23813;DHT22;12087;45.190;5.688;2023-03-01T04:11:46;5.10;99.90
23813;DHT22;12087;45.190;5.688;2023-03-01T04:17:08;5.10;99.90
23813;DHT22;12087;45.190;5.688;2023-03-01T04:22:32;5.10;99.90
23813;DHT22;12087;45.190;5.688;2023-03-01T04:27:55;5.00;99.90
23813;DHT22;12087;45.190;5.688;2023-03-01T04:33:18;5.00;99.90
23813;DHT22;12087;45.190;5.688;2023-03-01T04:38:42;5.00;99.90
23813;DHT22;12087;45.190;5.688;2023-03-01T04:44:07;4.90;99.90
23813;DHT22;12087;45.190;5.688;2023-03-01T04:49:30;4.90;99.90
23813;DHT22;12087;45.190;5.688;2023-03-01T04:54:54;4.90;99.90
23813;DHT22;12087;45.190;5.688;2023-03-01T05:00:16;5.00;99.90
23813;DHT22;12087;45.190;5.688;2023-03-01T05:05:46;5.00;99.90
23813;DHT22;12087;45.190;5.688;2023-03-01T05:11:10;5.00;99.90
23813;DHT22;12087;45.190;5.688;2023-03-01T05:16:34;5.00;99.90
23813;DHT22;12087;45.190;5.688;2023-03-01T05:21:56;5.00;99.90
23813;DHT22;12087;45.190;5.688;2023-03-01T05:27:28;5.10;99.90
23813;DHT22;12087;45.190;5.688;2023-03-01T05:32:50;5.00;99.90
23813;DHT22;12087;45.190;5.688;2023-03-01T05:38:16;5.00;99.90
23813;DHT22;12087;45.190;5.688;2023-03-01T05:43:40;4.90;99.90
23813;DHT22;12087;45.190;5.688;2023-03-01T05:49:05;4.90;99.90
23813;DHT22;12087;45.190;5.688;2023-03-01T05:54:27;5.00;99.90
23813;DHT22;12087;45.190;5.688;2023-03-01T05:59:51;5.00;99.90
23813;DHT22;12087;45.190;5.688;2023-03-01T06:05:14;4.90;99.90
23813;DHT22;12087;45.190;5.688;2023-03-01T06:10:36;4.90;99.90
23813;DHT22;12087;45.190;5.688;2023-03-01T06:16:00;5.00;99.90
23813;DHT22;12087;45.190;5.688;2023-03-01T06:21:22;4.90;99.90
23813;DHT22;12087;45.190;5.688;2023-03-01T06:26:45;4.80;99.90
23813;DHT22;12087;45.190;5.688;2023-03-01T06:32:08;4.70;99.90
23813;DHT22;12087;45.190;5.688;2023-03-01T06:37:30;4.70;99.90
23813;DHT22;12087;45.190;5.688;2023-03-01T06:42:53;4.70;99.90
23813;DHT22;12087;45.190;5.688;2023-03-01T06:48:16;4.70;99.90
23813;DHT22;12087;45.190;5.688;2023-03-01T06:53:39;4.60;99.90
23813;DHT22;12087;45.190;5.688;2023-03-01T06:59:01;4.60;99.90
23813;DHT22;12087;45.190;5.688;2023-03-01T07:04:25;4.50;99.90
23813;DHT22;12087;45.190;5.688;2023-03-01T07:09:49;4.50;99.90
23813;DHT22;12087;45.190;5.688;2023-03-01T07:15:11;4.50;99.90
23813;DHT22;12087;45.190;5.688;2023-03-01T07:20:37;4.50;99.90
23813;DHT22;12087;45.190;5.688;2023-03-01T07:25:59;4.50;99.90
23813;DHT22;12087;45.190;5.688;2023-03-01T07:31:22;4.50;99.90
23813;DHT22;12087;45.190;5.688;2023-03-01T07:36:45;4.50;99.90
23813;DHT22;12087;45.190;5.688;2023-03-01T07:42:08;4.40;99.90
23813;DHT22;12087;45.190;5.688;2023-03-01T07:47:30;4.50;99.90
23813;DHT22;12087;45.190;5.688;2023-03-01T07:52:54;4.40;99.90
23813;DHT22;12087;45.190;5.688;2023-03-01T07:58:16;4.40;99.90
23813;DHT22;12087;45.190;5.688;2023-03-01T08:03:40;4.30;99.90
23813;DHT22;12087;45.190;5.688;2023-03-01T08:09:03;4.30;99.90
23813;DHT22;12087;45.190;5.688;2023-03-01T08:14:26;4.40;99.90
23813;DHT22;12087;45.190;5.688;2023-03-01T08:19:48;4.40;99.90
23813;DHT22;12087;45.190;5.688;2023-03-01T08:25:11;4.40;99.90
23813;DHT22;12087;45.190;5.688;2023-03-01T08:30:34;4.40;99.90
23813;DHT22;12087;45.190;5.688;2023-03-01T08:36:03;4.40;99.90
23813;DHT22;12087;45.190;5.688;2023-03-01T08:41:29;4.50;99.90
23813;DHT22;12087;45.190;5.688;2023-03-01T08:46:52;4.50;99.90
23813;DHT22;12087;45.190;5.688;2023-03-01T08:52:16;4.50;99.90
23813;DHT22;12087;45.190;5.688;2023-03-01T08:57:40;4.50;99.90
23813;DHT22;12087;45.190;5.688;2023-03-01T09:03:02;4.60;99.90
23813;DHT22;12087;45.190;5.688;2023-03-01T09:08:25;4.70;99.90
23813;DHT22;12087;45.190;5.688;2023-03-01T09:13:49;4.80;99.90
23813;DHT22;12087;45.190;5.688;2023-03-01T09:19:11;4.80;99.90
23813;DHT22;12087;45.190;5.688;2023-03-01T09:24:34;4.90;99.90
23813;DHT22;12087;45.190;5.688;2023-03-01T09:29:57;5.00;99.90
23813;DHT22;12087;45.190;5.688;2023-03-01T09:35:19;5.00;99.90
23813;DHT22;12087;45.190;5.688;2023-03-01T09:40:44;5.10;99.90
23813;DHT22;12087;45.190;5.688;2023-03-01T09:46:11;5.30;99.90
23813;DHT22;12087;45.190;5.688;2023-03-01T09:51:35;5.30;99.90
23813;DHT22;12087;45.190;5.688;2023-03-01T09:57:06;5.40;99.90
23813;DHT22;12087;45.190;5.688;2023-03-01T10:02:37;5.40;99.90
23813;DHT22;12087;45.190;5.688;2023-03-01T10:08:10;5.50;99.90
23813;DHT22;12087;45.190;5.688;2023-03-01T10:13:43;5.60;99.90
23813;DHT22;12087;45.190;5.688;2023-03-01T10:19:14;5.70;99.90
23813;DHT22;12087;45.190;5.688;2023-03-01T10:24:39;5.70;99.90
23813;DHT22;12087;45.190;5.688;2023-03-01T10:30:09;5.80;99.90
23813;DHT22;12087;45.190;5.688;2023-03-01T10:35:34;6.00;99.90
23813;DHT22;12087;45.190;5.688;2023-03-01T10:40:58;6.10;99.90
23813;DHT22;12087;45.190;5.688;2023-03-01T10:46:27;6.20;99.90
23813;DHT22;12087;45.190;5.688;2023-03-01T10:51:52;6.20;99.90
23813;DHT22;12087;45.190;5.688;2023-03-01T10:57:29;6.40;99.90
23813;DHT22;12087;45.190;5.688;2023-03-01T11:03:09;6.50;99.90
23813;DHT22;12087;45.190;5.688;2023-03-01T11:08:45;6.40;99.90
23813;DHT22;12087;45.190;5.688;2023-03-01T11:14:14;6.30;99.90
23813;DHT22;12087;45.190;5.688;2023-03-01T11:19:36;6.30;99.90
23813;DHT22;12087;45.190;5.688;2023-03-01T11:25:01;6.30;99.90
23813;DHT22;12087;45.190;5.688;2023-03-01T11:30:29;6.30;99.90
23813;DHT22;12087;45.190;5.688;2023-03-01T11:35:57;6.30;99.90
23813;DHT22;12087;45.190;5.688;2023-03-01T11:41:26;6.30;99.90
23813;DHT22;12087;45.190;5.688;2023-03-01T11:47:10;6.30;99.90
23813;DHT22;12087;45.190;5.688;2023-03-01T11:52:44;6.40;99.90
23813;DHT22;12087;45.190;5.688;2023-03-01T11:58:33;6.40;99.90
23813;DHT22;12087;45.190;5.688;2023-03-01T12:04:38;6.40;99.90
23813;DHT22;12087;45.190;5.688;2023-03-01T12:10:23;6.50;99.90
23813;DHT22;12087;45.190;5.688;2023-03-01T12:16:03;6.50;99.90
23813;DHT22;12087;45.190;5.688;2023-03-01T12:21:39;6.50;99.90
23813;DHT22;12087;45.190;5.688;2023-03-01T12:27:19;6.50;99.90
23813;DHT22;12087;45.190;5.688;2023-03-01T12:32:55;6.60;99.90
23813;DHT22;12087;45.190;5.688;2023-03-01T12:38:40;6.60;99.90
23813;DHT22;12087;45.190;5.688;2023-03-01T12:44:11;6.60;99.90
23813;DHT22;12087;45.190;5.688;2023-03-01T12:49:41;6.70;99.90
23813;DHT22;12087;45.190;5.688;2023-03-01T12:55:14;6.70;99.90
23813;DHT22;12087;45.190;5.688;2023-03-01T13:00:45;6.80;99.90
23813;DHT22;12087;45.190;5.688;2023-03-01T13:06:15;6.70;99.90
23813;DHT22;12087;45.190;5.688;2023-03-01T13:11:41;6.70;99.90
23813;DHT22;12087;45.190;5.688;2023-03-01T13:17:04;6.90;99.90
23813;DHT22;12087;45.190;5.688;2023-03-01T13:22:30;6.90;99.90
23813;DHT22;12087;45.190;5.688;2023-03-01T13:46:11;7.30;99.90
23813;DHT22;12087;45.190;5.688;2023-03-01T13:51:36;7.40;99.90
23813;DHT22;12087;45.190;5.688;2023-03-01T13:57:01;7.50;99.90
23813;DHT22;12087;45.190;5.688;2023-03-01T14:02:24;7.70;99.90
23813;DHT22;12087;45.190;5.688;2023-03-01T14:07:51;7.90;99.90
23813;DHT22;12087;45.190;5.688;2023-03-01T14:13:26;8.00;99.90
23813;DHT22;12087;45.190;5.688;2023-03-01T14:18:58;8.10;99.90
23813;DHT22;12087;45.190;5.688;2023-03-01T14:24:23;8.00;99.90
23813;DHT22;12087;45.190;5.688;2023-03-01T14:29:57;7.90;99.90
23813;DHT22;12087;45.190;5.688;2023-03-01T14:35:21;7.90;99.90
23813;DHT22;12087;45.190;5.688;2023-03-01T14:40:44;7.80;99.90
23813;DHT22;12087;45.190;5.688;2023-03-01T14:46:18;7.70;99.90
23813;DHT22;12087;45.190;5.688;2023-03-01T14:51:42;7.70;99.90
23813;DHT22;12087;45.190;5.688;2023-03-01T14:57:04;7.70;99.90
23813;DHT22;12087;45.190;5.688;2023-03-01T15:02:29;7.80;99.90
23813;DHT22;12087;45.190;5.688;2023-03-01T15:07:52;7.90;99.90
23813;DHT22;12087;45.190;5.688;2023-03-01T15:13:22;8.00;99.90
23813;DHT22;12087;45.190;5.688;2023-03-01T15:18:48;8.00;99.90
23813;DHT22;12087;45.190;5.688;2023-03-01T15:24:18;7.90;99.90
23813;DHT22;12087;45.190;5.688;2023-03-01T15:29:49;7.70;99.90
23813;DHT22;12087;45.190;5.688;2023-03-01T15:35:39;7.60;99.90
23813;DHT22;12087;45.190;5.688;2023-03-01T15:41:04;7.40;99.90
23813;DHT22;12087;45.190;5.688;2023-03-01T15:46:28;7.30;99.90
23813;DHT22;12087;45.190;5.688;2023-03-01T15:51:54;7.30;99.90
23813;DHT22;12087;45.190;5.688;2023-03-01T15:57:18;7.20;99.90
23813;DHT22;12087;45.190;5.688;2023-03-01T16:02:41;7.00;99.90
23813;DHT22;12087;45.190;5.688;2023-03-01T16:08:06;6.90;99.90
23813;DHT22;12087;45.190;5.688;2023-03-01T16:13:29;6.80;99.90
23813;DHT22;12087;45.190;5.688;2023-03-01T16:18:52;6.60;99.90
23813;DHT22;12087;45.190;5.688;2023-03-01T16:24:16;6.40;99.90
23813;DHT22;12087;45.190;5.688;2023-03-01T16:29:39;6.30;99.90
23813;DHT22;12087;45.190;5.688;2023-03-01T16:35:01;6.10;99.90
23813;DHT22;12087;45.190;5.688;2023-03-01T16:40:27;6.10;99.90
23813;DHT22;12087;45.190;5.688;2023-03-01T16:45:50;5.90;99.90
23813;DHT22;12087;45.190;5.688;2023-03-01T16:51:13;5.90;99.90
23813;DHT22;12087;45.190;5.688;2023-03-01T16:56:36;5.80;99.90
23813;DHT22;12087;45.190;5.688;2023-03-01T17:02:00;5.80;99.90
23813;DHT22;12087;45.190;5.688;2023-03-01T17:07:22;5.70;99.90
23813;DHT22;12087;45.190;5.688;2023-03-01T17:12:48;5.60;99.90
23813;DHT22;12087;45.190;5.688;2023-03-01T17:18:10;5.60;99.90
23813;DHT22;12087;45.190;5.688;2023-03-01T17:23:33;5.60;99.90
23813;DHT22;12087;45.190;5.688;2023-03-01T17:28:57;5.60;99.90
23813;DHT22;12087;45.190;5.688;2023-03-01T17:34:20;5.60;99.90
23813;DHT22;12087;45.190;5.688;2023-03-01T17:39:42;5.50;99.90
23813;DHT22;12087;45.190;5.688;2023-03-01T17:45:06;5.50;99.90
23813;DHT22;12087;45.190;5.688;2023-03-01T17:50:29;5.50;99.90
23813;DHT22;12087;45.190;5.688;2023-03-01T17:55:59;5.40;99.90
23813;DHT22;12087;45.190;5.688;2023-03-01T18:01:23;5.40;99.90
23813;DHT22;12087;45.190;5.688;2023-03-01T18:06:45;5.40;99.90
23813;DHT22;12087;45.190;5.688;2023-03-01T18:12:08;5.40;99.90
23813;DHT22;12087;45.190;5.688;2023-03-01T18:17:32;5.40;99.90
23813;DHT22;12087;45.190;5.688;2023-03-01T18:22:56;5.30;99.90
23813;DHT22;12087;45.190;5.688;2023-03-01T18:28:18;5.40;99.90
23813;DHT22;12087;45.190;5.688;2023-03-01T18:33:42;5.30;99.90
23813;DHT22;12087;45.190;5.688;2023-03-01T18:39:06;5.30;99.90
23813;DHT22;12087;45.190;5.688;2023-03-01T18:44:28;5.30;99.90
23813;DHT22;12087;45.190;5.688;2023-03-01T18:49:52;5.30;99.90
23813;DHT22;12087;45.190;5.688;2023-03-01T18:55:14;5.30;99.90
23813;DHT22;12087;45.190;5.688;2023-03-01T19:00:37;5.30;99.90
23813;DHT22;12087;45.190;5.688;2023-03-01T19:06:00;5.30;99.90
23813;DHT22;12087;45.190;5.688;2023-03-01T19:11:24;5.30;99.90
23813;DHT22;12087;45.190;5.688;2023-03-01T19:16:50;5.30;99.90
23813;DHT22;12087;45.190;5.688;2023-03-01T19:22:13;5.20;99.90
23813;DHT22;12087;45.190;5.688;2023-03-01T19:27:36;5.20;99.90
23813;DHT22;12087;45.190;5.688;2023-03-01T19:32:58;5.30;99.90
23813;DHT22;12087;45.190;5.688;2023-03-01T19:38:22;5.30;99.90
23813;DHT22;12087;45.190;5.688;2023-03-01T19:43:45;5.30;99.90
23813;DHT22;12087;45.190;5.688;2023-03-01T19:49:08;5.20;99.90
23813;DHT22;12087;45.190;5.688;2023-03-01T19:54:31;5.20;99.90
23813;DHT22;12087;45.190;5.688;2023-03-01T19:59:54;5.20;99.90
23813;DHT22;12087;45.190;5.688;2023-03-01T20:05:16;5.20;99.90
23813;DHT22;12087;45.190;5.688;2023-03-01T20:10:40;5.20;99.90
23813;DHT22;12087;45.190;5.688;2023-03-01T20:16:04;5.20;99.90
23813;DHT22;12087;45.190;5.688;2023-03-01T20:21:26;5.20;99.90
23813;DHT22;12087;45.190;5.688;2023-03-01T20:26:50;5.20;99.90
23813;DHT22;12087;45.190;5.688;2023-03-01T20:32:12;5.20;99.90
23813;DHT22;12087;45.190;5.688;2023-03-01T20:37:35;5.20;99.90
23813;DHT22;12087;45.190;5.688;2023-03-01T20:42:58;5.20;99.90
23813;DHT22;12087;45.190;5.688;2023-03-01T20:48:21;5.20;99.90
23813;DHT22;12087;45.190;5.688;2023-03-01T20:53:44;5.20;99.90
23813;DHT22;12087;45.190;5.688;2023-03-01T20:59:09;5.20;99.90
23813;DHT22;12087;45.190;5.688;2023-03-01T21:04:31;5.20;99.90
23813;DHT22;12087;45.190;5.688;2023-03-01T21:09:53;5.20;99.90
23813;DHT22;12087;45.190;5.688;2023-03-01T21:15:17;5.20;99.90
23813;DHT22;12087;45.190;5.688;2023-03-01T21:20:39;5.30;99.90
23813;DHT22;12087;45.190;5.688;2023-03-01T21:26:03;5.30;99.90
23813;DHT22;12087;45.190;5.688;2023-03-01T21:31:29;5.30;99.90
23813;DHT22;12087;45.190;5.688;2023-03-01T21:36:53;5.30;99.90
23813;DHT22;12087;45.190;5.688;2023-03-01T21:42:15;5.40;99.90
23813;DHT22;12087;45.190;5.688;2023-03-01T21:47:39;5.30;99.90
23813;DHT22;12087;45.190;5.688;2023-03-01T21:53:01;5.30;99.90
23813;DHT22;12087;45.190;5.688;2023-03-01T21:58:25;5.30;99.90
23813;DHT22;12087;45.190;5.688;2023-03-01T22:03:50;5.40;99.90
23813;DHT22;12087;45.190;5.688;2023-03-01T22:09:14;5.40;99.90
23813;DHT22;12087;45.190;5.688;2023-03-01T22:14:36;5.40;99.90
23813;DHT22;12087;45.190;5.688;2023-03-01T22:20:01;5.50;99.90
23813;DHT22;12087;45.190;5.688;2023-03-01T22:25:23;5.50;99.90
23813;DHT22;12087;45.190;5.688;2023-03-01T22:30:46;5.50;99.90
23813;DHT22;12087;45.190;5.688;2023-03-01T22:36:10;5.60;99.90
23813;DHT22;12087;45.190;5.688;2023-03-01T22:41:34;5.60;99.90
23813;DHT22;12087;45.190;5.688;2023-03-01T22:46:56;5.60;99.90
23813;DHT22;12087;45.190;5.688;2023-03-01T22:52:20;5.60;99.90
23813;DHT22;12087;45.190;5.688;2023-03-01T22:57:42;5.60;99.90
23813;DHT22;12087;45.190;5.688;2023-03-01T23:03:04;5.60;99.90
23813;DHT22;12087;45.190;5.688;2023-03-01T23:08:28;5.60;99.90
23813;DHT22;12087;45.190;5.688;2023-03-01T23:13:51;5.60;99.90
23813;DHT22;12087;45.190;5.688;2023-03-01T23:19:13;5.60;99.90
23813;DHT22;12087;45.190;5.688;2023-03-01T23:24:37;5.60;99.90
23813;DHT22;12087;45.190;5.688;2023-03-01T23:30:00;5.60;99.90
23813;DHT22;12087;45.190;5.688;2023-03-01T23:35:22;5.60;99.90
23813;DHT22;12087;45.190;5.688;2023-03-01T23:40:46;5.60;99.90
23813;DHT22;12087;45.190;5.688;2023-03-01T23:46:08;5.60;99.90
23813;DHT22;12087;45.190;5.688;2023-03-01T23:51:33;5.70;99.90
23813;DHT22;12087;45.190;5.688;2023-03-01T23:56:57;5.70;99.90
